createdAt,value
2019-01-03T00:02:33.709Z,3.40
2019-01-03T00:05:17.151Z,3.40
2019-01-03T00:07:52.146Z,3.40
2019-01-03T00:10:25.339Z,3.30
2019-01-03T00:13:17.188Z,3.30
2019-01-03T00:16:08.873Z,3.30
2019-01-03T00:18:41.498Z,3.40
2019-01-03T00:21:42.893Z,3.40
2019-01-03T00:24:15.692Z,3.50
2019-01-03T00:27:18.504Z,3.50
2019-01-03T00:30:10.578Z,3.50
2019-01-03T00:33:04.133Z,3.50
2019-01-03T00:35:45.953Z,3.40
2019-01-03T00:38:19.278Z,3.40
2019-01-03T00:41:13.563Z,3.40
2019-01-03T00:44:03.541Z,3.40
2019-01-03T00:46:52.630Z,3.40
2019-01-03T00:49:25.344Z,3.50
2019-01-03T00:52:00.609Z,3.50
2019-01-03T00:54:53.735Z,3.50
2019-01-03T00:57:32.209Z,3.50
2019-01-03T01:00:07.568Z,3.50
2019-01-03T01:03:11.077Z,3.50
2019-01-03T01:06:07.589Z,3.50
2019-01-03T01:08:40.561Z,3.50
2019-01-03T01:11:13.263Z,3.50
2019-01-03T01:13:51.868Z,3.50
2019-01-03T01:16:50.454Z,3.50
2019-01-03T01:19:42.819Z,3.50
2019-01-03T01:22:51.398Z,3.60
2019-01-03T01:25:38.342Z,3.60
2019-01-03T01:28:32.082Z,3.50
2019-01-03T01:31:23.119Z,3.60
2019-01-03T01:34:08.862Z,3.60
2019-01-03T01:36:47.677Z,3.60
2019-01-03T01:39:35.687Z,3.60
2019-01-03T01:42:23.762Z,3.60
2019-01-03T01:45:15.417Z,3.60
2019-01-03T01:47:51.490Z,3.70
2019-01-03T01:50:31.163Z,3.70
2019-01-03T01:53:03.806Z,3.70
2019-01-03T01:55:39.085Z,3.70
2019-01-03T01:58:28.053Z,3.80
2019-01-03T02:01:15.981Z,3.70
2019-01-03T02:03:54.240Z,3.60
2019-01-03T02:06:47.535Z,3.60
2019-01-03T02:09:34.744Z,3.70
2019-01-03T02:12:12.901Z,3.70
2019-01-03T02:14:48.504Z,3.90
2019-01-03T02:17:26.985Z,3.90
2019-01-03T02:20:02.618Z,3.90
2019-01-03T02:22:50.992Z,3.90
2019-01-03T02:25:23.732Z,3.90
2019-01-03T02:28:16.871Z,3.80
2019-01-03T02:31:06.354Z,3.90
2019-01-03T02:36:54.862Z,3.80
2019-01-03T02:39:41.415Z,3.90
2019-01-03T02:42:33.934Z,3.90
2019-01-03T02:45:06.900Z,3.80
2019-01-03T02:47:42.485Z,3.80
2019-01-03T02:50:17.624Z,3.80
2019-01-03T02:53:05.052Z,3.80
2019-01-03T02:55:57.818Z,3.80
2019-01-03T02:58:33.067Z,3.90
2019-01-03T03:01:05.753Z,3.80
2019-01-03T03:04:07.264Z,3.80
2019-01-03T03:07:01.017Z,3.80
2019-01-03T03:09:43.719Z,3.90
2019-01-03T03:12:36.662Z,3.90
2019-01-03T03:15:30.063Z,3.90
2019-01-03T03:18:08.312Z,3.90
2019-01-03T03:20:43.211Z,3.90
2019-01-03T03:23:36.702Z,3.80
2019-01-03T03:26:36.906Z,3.80
2019-01-03T03:29:12.213Z,3.80
2019-01-03T03:31:44.793Z,3.80
2019-01-03T03:34:17.362Z,3.90
2019-01-03T03:36:56.488Z,3.80
2019-01-03T03:39:34.913Z,3.90
2019-01-03T03:42:20.853Z,3.90
2019-01-03T03:44:59.202Z,3.90
2019-01-03T03:47:37.694Z,3.90
2019-01-03T03:50:10.306Z,3.90
2019-01-03T03:53:16.901Z,3.90
2019-01-03T03:55:52.600Z,3.90
2019-01-03T03:58:43.268Z,4.00
2019-01-03T04:01:28.138Z,3.90
2019-01-03T04:04:23.510Z,3.90
2019-01-03T04:06:59.182Z,4.00
2019-01-03T04:09:57.679Z,3.90
2019-01-03T04:12:49.740Z,3.90
2019-01-03T04:15:37.993Z,3.90
2019-01-03T04:18:16.398Z,3.90
2019-01-03T04:20:59.848Z,4.00
2019-01-03T04:23:48.442Z,4.00
2019-01-03T04:26:20.915Z,4.10
2019-01-03T04:29:19.607Z,4.10
2019-01-03T04:31:52.258Z,4.20
2019-01-03T04:34:32.510Z,4.10
2019-01-03T04:37:10.935Z,4.10
2019-01-03T04:40:06.910Z,4.10
2019-01-03T04:42:39.550Z,4.10
2019-01-03T04:48:23.029Z,4.10
2019-01-03T04:51:01.609Z,4.10
2019-01-03T04:53:34.199Z,4.10
2019-01-03T04:56:29.841Z,4.10
2019-01-03T04:59:11.430Z,4.10
2019-01-03T05:02:12.356Z,4.10
2019-01-03T05:05:06.948Z,4.10
2019-01-03T05:08:01.873Z,4.20
2019-01-03T05:10:40.010Z,4.20
2019-01-03T05:13:33.560Z,4.20
2019-01-03T05:16:05.895Z,4.20
2019-01-03T05:18:55.659Z,4.20
2019-01-03T05:21:50.880Z,4.20
2019-01-03T05:24:53.690Z,4.20
2019-01-03T05:27:46.828Z,4.20
2019-01-03T05:30:19.488Z,4.20
2019-01-03T05:33:04.678Z,4.20
2019-01-03T05:35:37.474Z,4.10
2019-01-03T05:38:28.815Z,4.10
2019-01-03T05:41:25.728Z,4.10
2019-01-03T05:44:17.772Z,4.10
2019-01-03T05:46:52.995Z,4.10
2019-01-03T05:49:46.009Z,4.10
2019-01-03T05:52:21.687Z,4.10
2019-01-03T05:55:00.736Z,4.00
2019-01-03T05:57:54.593Z,4.00
2019-01-03T06:00:30.033Z,4.00
2019-01-03T06:03:20.079Z,4.00
2019-01-03T06:06:09.753Z,4.00
2019-01-03T06:08:44.953Z,4.00
2019-01-03T06:11:26.850Z,4.00
2019-01-03T06:14:05.368Z,4.00
2019-01-03T06:16:59.906Z,4.00
2019-01-03T06:19:45.388Z,4.00
2019-01-03T06:22:24.446Z,4.00
2019-01-03T06:25:13.551Z,4.00
2019-01-03T06:28:06.352Z,4.10
2019-01-03T06:31:00.378Z,4.10
2019-01-03T06:33:32.968Z,4.00
2019-01-03T06:36:08.789Z,4.10
2019-01-03T06:39:01.764Z,4.10
2019-01-03T06:41:37.068Z,4.10
2019-01-03T06:44:15.808Z,4.10
2019-01-03T06:46:48.482Z,4.10
2019-01-03T06:49:22.581Z,4.00
2019-01-03T06:52:01.425Z,3.90
2019-01-03T06:54:41.608Z,3.90
2019-01-03T06:57:34.018Z,3.80
2019-01-03T07:00:07.419Z,3.80
2019-01-03T07:03:01.809Z,3.90
2019-01-03T07:05:37.369Z,3.90
2019-01-03T07:08:13.201Z,3.80
2019-01-03T07:10:45.949Z,3.90
2019-01-03T07:13:21.748Z,3.90
2019-01-03T07:16:03.619Z,3.90
2019-01-03T07:18:43.491Z,3.90
2019-01-03T07:21:27.117Z,3.90
2019-01-03T07:24:09.147Z,4.00
2019-01-03T07:27:18.983Z,4.00
2019-01-03T07:29:51.715Z,3.90
2019-01-03T07:32:24.555Z,4.00
2019-01-03T07:35:06.302Z,4.00
2019-01-03T07:37:44.831Z,4.00
2019-01-03T07:40:27.096Z,4.00
2019-01-03T07:43:00.322Z,4.00
2019-01-03T07:45:38.343Z,4.00
2019-01-03T07:48:23.422Z,4.00
2019-01-03T07:50:58.674Z,4.00
2019-01-03T07:53:50.116Z,4.00
2019-01-03T07:56:48.793Z,4.00
2019-01-03T07:59:40.089Z,4.00
2019-01-03T08:02:53.625Z,4.00
2019-01-03T08:05:31.712Z,4.10
2019-01-03T08:08:30.690Z,4.10
2019-01-03T08:11:09.122Z,4.10
2019-01-03T08:14:01.960Z,4.10
2019-01-03T08:16:34.647Z,4.10
2019-01-03T08:19:08.165Z,4.10
2019-01-03T08:21:40.412Z,4.10
2019-01-03T08:24:23.044Z,4.20
2019-01-03T08:27:10.345Z,4.20
2019-01-03T08:29:53.285Z,4.20
2019-01-03T08:32:38.130Z,4.20
2019-01-03T08:35:31.345Z,4.20
2019-01-03T08:38:23.858Z,4.20
2019-01-03T08:41:04.678Z,4.30
2019-01-03T08:43:37.289Z,4.30
2019-01-03T08:46:41.613Z,4.40
2019-01-03T08:49:35.734Z,4.50
2019-01-03T08:52:11.149Z,4.40
2019-01-03T08:54:50.343Z,4.50
2019-01-03T08:57:54.599Z,4.40
2019-01-03T09:00:33.423Z,4.40
2019-01-03T09:03:27.856Z,4.50
2019-01-03T09:06:20.971Z,4.50
2019-01-03T09:08:57.034Z,4.60
2019-01-03T09:11:50.806Z,4.70
2019-01-03T09:14:39.357Z,4.70
2019-01-03T09:17:18.767Z,4.70
2019-01-03T09:19:51.475Z,4.70
2019-01-03T09:22:24.356Z,4.70
2019-01-03T09:24:59.699Z,4.80
2019-01-03T09:27:53.376Z,4.80
2019-01-03T09:30:44.180Z,4.80
2019-01-03T09:33:51.867Z,4.80
2019-01-03T09:36:32.545Z,4.90
2019-01-03T09:39:21.815Z,4.90
2019-01-03T09:42:04.905Z,4.90
2019-01-03T09:44:40.414Z,4.90
2019-01-03T09:47:20.941Z,4.90
2019-01-03T09:50:01.729Z,4.90
2019-01-03T09:52:33.107Z,5.00
2019-01-03T09:55:04.536Z,5.00
2019-01-03T09:57:42.786Z,5.10
2019-01-03T10:00:13.479Z,5.10
2019-01-03T10:02:54.552Z,5.20
2019-01-03T10:05:26.129Z,5.20
2019-01-03T10:07:58.051Z,5.30
2019-01-03T10:10:28.849Z,5.40
2019-01-03T10:13:00.590Z,5.50
2019-01-03T10:15:34.440Z,5.60
2019-01-03T10:18:09.095Z,5.60
2019-01-03T10:20:50.631Z,5.60
2019-01-03T10:23:21.845Z,5.60
2019-01-03T10:26:00.204Z,5.60
2019-01-03T10:28:31.424Z,5.60
2019-01-03T10:31:02.603Z,5.50
2019-01-03T10:33:33.302Z,5.50
2019-01-03T10:36:08.159Z,5.50
2019-01-03T10:38:40.957Z,5.50
2019-01-03T10:41:11.730Z,5.50
2019-01-03T10:43:42.725Z,5.50
2019-01-03T10:46:14.653Z,5.60
2019-01-03T10:48:45.535Z,5.60
2019-01-03T10:51:16.490Z,5.60
2019-01-03T10:53:48.067Z,5.80
2019-01-03T10:56:18.582Z,5.80
2019-01-03T10:58:50.053Z,5.80
2019-01-03T11:01:21.425Z,5.80
2019-01-03T11:03:52.951Z,5.80
2019-01-03T11:06:23.895Z,5.90
2019-01-03T11:08:54.899Z,6.10
2019-01-03T11:11:26.262Z,6.00
2019-01-03T11:13:57.136Z,6.10
2019-01-03T11:16:28.567Z,6.20
2019-01-03T11:18:59.152Z,6.20
2019-01-03T11:21:30.596Z,6.10
2019-01-03T11:24:02.130Z,6.10
2019-01-03T11:26:33.223Z,6.10
2019-01-03T11:29:06.133Z,6.10
2019-01-03T11:31:37.478Z,6.20
2019-01-03T11:34:08.787Z,6.10
2019-01-03T11:36:40.045Z,6.00
2019-01-03T11:39:11.344Z,6.10
2019-01-03T11:41:42.712Z,6.00
2019-01-03T11:44:14.286Z,6.10
2019-01-03T11:46:45.329Z,6.20
2019-01-03T11:49:16.343Z,6.40
2019-01-03T11:51:58.675Z,6.60
2019-01-03T11:54:29.585Z,6.50
2019-01-03T11:57:01.039Z,6.60
2019-01-03T11:59:32.621Z,6.70
2019-01-03T12:02:03.832Z,6.80
2019-01-03T12:04:34.307Z,6.80
2019-01-03T12:07:07.768Z,6.70
2019-01-03T12:09:39.124Z,6.60
2019-01-03T12:12:10.017Z,6.50
2019-01-03T12:14:41.047Z,6.40
2019-01-03T12:17:12.128Z,6.30
2019-01-03T12:19:43.033Z,6.30
2019-01-03T12:22:30.042Z,6.40
2019-01-03T12:25:01.159Z,6.50
2019-01-03T12:27:33.772Z,6.50
2019-01-03T12:30:06.247Z,6.40
2019-01-03T12:32:47.025Z,6.40
2019-01-03T12:35:18.176Z,6.50
2019-01-03T12:37:49.067Z,6.40
2019-01-03T12:40:25.706Z,6.50
2019-01-03T12:42:56.660Z,6.30
2019-01-03T12:45:29.046Z,6.40
2019-01-03T12:48:00.120Z,6.50
2019-01-03T12:50:31.526Z,6.50
2019-01-03T12:53:02.491Z,6.50
2019-01-03T12:55:33.466Z,6.50
2019-01-03T12:58:04.132Z,6.40
2019-01-03T13:00:35.056Z,6.40
2019-01-03T13:03:05.500Z,6.30
2019-01-03T13:05:36.486Z,6.20
2019-01-03T13:08:07.401Z,6.30
2019-01-03T13:10:59.362Z,6.30
2019-01-03T13:13:43.194Z,6.40
2019-01-03T13:16:14.446Z,6.30
2019-01-03T13:18:45.428Z,6.30
2019-01-03T13:21:26.362Z,6.30
2019-01-03T13:24:07.667Z,6.40
2019-01-03T13:26:38.281Z,6.40
2019-01-03T13:29:09.600Z,6.30
2019-01-03T13:31:41.036Z,6.30
2019-01-03T13:34:12.266Z,6.40
2019-01-03T13:36:42.735Z,6.40
2019-01-03T13:39:14.028Z,6.30
2019-01-03T13:41:55.164Z,6.30
2019-01-03T13:44:26.599Z,6.30
2019-01-03T13:46:57.724Z,6.30
2019-01-03T13:49:38.628Z,6.30
2019-01-03T13:52:27.811Z,6.30
2019-01-03T13:54:58.330Z,6.40
2019-01-03T13:57:29.326Z,6.50
2019-01-03T14:00:00.332Z,6.40
2019-01-03T14:02:31.934Z,6.50
2019-01-03T14:05:03.087Z,6.40
2019-01-03T14:07:34.044Z,6.30
2019-01-03T14:10:05.652Z,6.40
2019-01-03T14:12:36.598Z,6.30
2019-01-03T14:15:08.053Z,6.30
2019-01-03T14:17:38.935Z,6.40
2019-01-03T14:20:12.267Z,6.30
2019-01-03T14:22:42.908Z,6.30
2019-01-03T14:25:13.864Z,6.30
2019-01-03T14:28:26.100Z,6.30
2019-01-03T14:30:57.589Z,6.30
2019-01-03T14:33:28.444Z,6.40
2019-01-03T14:35:59.980Z,6.30
2019-01-03T14:38:31.033Z,6.30
2019-01-03T14:41:20.034Z,6.40
2019-01-03T14:43:51.135Z,6.30
2019-01-03T14:46:22.346Z,6.30
2019-01-03T14:48:53.408Z,6.30
2019-01-03T14:51:24.889Z,6.20
2019-01-03T14:53:55.883Z,6.10
2019-01-03T14:56:27.150Z,6.10
2019-01-03T14:58:58.290Z,6.20
2019-01-03T15:01:29.413Z,6.10
2019-01-03T15:04:00.478Z,6.10
2019-01-03T15:06:31.427Z,6.10
2019-01-03T15:09:11.786Z,6.10
2019-01-03T15:11:42.868Z,6.00
2019-01-03T15:14:15.241Z,6.10
2019-01-03T15:16:46.932Z,6.00
2019-01-03T15:19:18.244Z,6.10
2019-01-03T15:21:51.187Z,6.10
2019-01-03T15:24:22.123Z,6.10
2019-01-03T15:26:53.072Z,6.00
2019-01-03T15:29:23.974Z,6.00
2019-01-03T15:31:55.204Z,6.00
2019-01-03T15:34:26.463Z,6.00
2019-01-03T15:36:57.490Z,5.90
2019-01-03T15:39:28.669Z,5.90
2019-01-03T15:41:59.548Z,5.90
2019-01-03T15:44:30.767Z,5.90
2019-01-03T15:47:02.277Z,5.90
2019-01-03T15:49:32.985Z,5.90
2019-01-03T15:52:04.613Z,5.90
2019-01-03T15:54:35.634Z,6.00
2019-01-03T15:57:15.591Z,6.00
2019-01-03T15:59:46.829Z,5.90
2019-01-03T16:02:18.647Z,5.90
2019-01-03T16:04:49.458Z,5.90
2019-01-03T16:07:20.655Z,5.90
2019-01-03T16:09:51.853Z,5.90
2019-01-03T16:12:22.981Z,5.90
2019-01-03T16:14:54.350Z,5.80
2019-01-03T16:17:25.395Z,5.80
2019-01-03T16:20:04.145Z,5.90
2019-01-03T16:22:44.790Z,5.80
2019-01-03T16:25:15.831Z,5.80
2019-01-03T16:27:47.395Z,5.80
2019-01-03T16:30:18.559Z,5.80
2019-01-03T16:32:49.978Z,5.80
2019-01-03T16:35:21.659Z,5.80
2019-01-03T16:37:52.795Z,5.80
2019-01-03T16:40:24.284Z,5.70
2019-01-03T16:42:55.857Z,5.70
2019-01-03T16:45:28.877Z,5.70
2019-01-03T16:48:00.349Z,5.70
2019-01-03T16:50:31.807Z,5.70
2019-01-03T16:53:03.134Z,5.70
2019-01-03T16:55:34.183Z,5.70
2019-01-03T16:58:05.358Z,5.60
2019-01-03T17:00:36.788Z,5.60
2019-01-03T17:03:15.011Z,5.70
2019-01-03T17:05:46.059Z,5.70
2019-01-03T17:08:35.322Z,5.70
2019-01-03T17:11:06.641Z,5.70
2019-01-03T17:13:37.760Z,5.70
2019-01-03T17:16:08.805Z,5.70
2019-01-03T17:18:40.184Z,5.70
2019-01-03T17:21:11.237Z,5.70
2019-01-03T17:23:42.435Z,5.70
2019-01-03T17:26:13.526Z,5.70
2019-01-03T17:28:44.697Z,5.70
2019-01-03T17:31:15.816Z,5.70
2019-01-03T17:33:46.845Z,5.70
2019-01-03T17:36:18.073Z,5.70
2019-01-03T17:38:49.207Z,5.70
2019-01-03T17:41:20.403Z,5.60
2019-01-03T17:43:52.003Z,5.60
2019-01-03T17:46:23.488Z,5.60
2019-01-03T17:48:54.584Z,5.50
2019-01-03T17:51:36.043Z,5.60
2019-01-03T17:54:07.294Z,5.50
2019-01-03T17:56:38.874Z,5.60
2019-01-03T17:59:13.079Z,5.60
2019-01-03T18:01:44.616Z,5.50
2019-01-03T18:04:26.003Z,5.60
2019-01-03T18:06:57.101Z,5.50
2019-01-03T18:09:28.097Z,5.60
2019-01-03T18:11:59.692Z,5.60
2019-01-03T18:14:30.991Z,5.50
2019-01-03T18:17:02.443Z,5.50
2019-01-03T18:19:33.773Z,5.60
2019-01-03T18:22:04.703Z,5.60
2019-01-03T18:24:49.474Z,5.60
2019-01-03T18:27:20.655Z,5.60
2019-01-03T18:30:01.594Z,5.50
2019-01-03T18:32:32.655Z,5.60
2019-01-03T18:35:04.486Z,5.60
2019-01-03T18:37:35.476Z,5.60
2019-01-03T18:40:08.337Z,5.50
2019-01-03T18:42:39.634Z,5.50
2019-01-03T18:45:12.284Z,5.50
2019-01-03T18:47:53.774Z,5.40
2019-01-03T18:50:24.981Z,5.50
2019-01-03T18:52:55.895Z,5.50
2019-01-03T18:55:27.111Z,5.60
2019-01-03T18:57:59.284Z,5.60
2019-01-03T19:00:30.773Z,5.60
2019-01-03T19:03:02.094Z,5.60
2019-01-03T19:05:34.286Z,5.60
2019-01-03T19:08:04.844Z,5.50
2019-01-03T19:10:36.196Z,5.50
2019-01-03T19:13:08.029Z,5.50
2019-01-03T19:15:39.216Z,5.60
2019-01-03T19:18:10.332Z,5.60
2019-01-03T19:20:55.097Z,5.50
2019-01-03T19:23:26.228Z,5.50
2019-01-03T19:26:02.970Z,5.50
2019-01-03T19:28:33.674Z,5.40
2019-01-03T19:31:04.294Z,5.40
2019-01-03T19:33:45.808Z,5.40
2019-01-03T19:36:26.213Z,5.30
2019-01-03T19:38:57.287Z,5.40
2019-01-03T19:41:28.586Z,5.40
2019-01-03T19:43:59.505Z,5.40
2019-01-03T19:46:30.375Z,5.40
2019-01-03T19:49:01.700Z,5.40
2019-01-03T19:51:32.698Z,5.40
2019-01-03T19:54:04.203Z,5.30
2019-01-03T19:56:35.519Z,5.40
2019-01-03T19:59:06.661Z,5.30
2019-01-03T20:01:38.268Z,5.30
2019-01-03T20:04:09.390Z,5.30
2019-01-03T20:06:40.562Z,5.30
2019-01-03T20:09:09.514Z,5.30
2019-01-03T20:11:40.758Z,5.30
2019-01-03T20:14:11.859Z,5.30
2019-01-03T20:16:42.996Z,5.30
2019-01-03T20:19:14.326Z,5.30
2019-01-03T20:21:45.478Z,5.20
2019-01-03T20:24:16.736Z,5.20
2019-01-03T20:26:47.864Z,5.20
2019-01-03T20:29:18.874Z,5.20
2019-01-03T20:31:47.819Z,5.20
2019-01-03T20:34:18.679Z,5.20
2019-01-03T20:36:49.751Z,5.10
2019-01-03T20:39:20.764Z,5.10
2019-01-03T20:41:52.157Z,5.10
2019-01-03T20:44:23.400Z,5.10
2019-01-03T20:46:54.690Z,5.20
2019-01-03T20:49:25.794Z,5.20
2019-01-03T20:51:56.997Z,5.10
2019-01-03T20:54:28.192Z,5.10
2019-01-03T20:56:59.514Z,5.10
2019-01-03T20:59:30.379Z,5.10
2019-01-03T21:02:01.556Z,5.10
2019-01-03T21:04:33.515Z,5.10
2019-01-03T21:07:04.652Z,5.10
2019-01-03T21:09:35.606Z,5.10
2019-01-03T21:12:08.845Z,5.10
2019-01-03T21:14:39.845Z,5.10
2019-01-03T21:17:10.923Z,5.20
2019-01-03T21:19:41.965Z,5.20
2019-01-03T21:22:28.834Z,5.10
2019-01-03T21:25:10.485Z,5.10
2019-01-03T21:27:41.602Z,5.20
2019-01-03T21:30:16.874Z,5.20
2019-01-03T21:32:48.022Z,5.10
2019-01-03T21:35:19.169Z,5.10
2019-01-03T21:37:50.106Z,5.10
2019-01-03T21:40:21.071Z,5.00
2019-01-03T21:42:52.462Z,5.00
2019-01-03T21:45:23.220Z,5.00
2019-01-03T21:47:54.206Z,5.00
2019-01-03T21:50:25.554Z,5.00
2019-01-03T21:52:56.962Z,4.90
2019-01-03T21:55:27.958Z,4.90
2019-01-03T21:57:58.488Z,4.90
2019-01-03T22:00:39.483Z,4.90
2019-01-03T22:03:10.585Z,4.90
2019-01-03T22:05:41.788Z,4.90
2019-01-03T22:08:13.237Z,5.00
2019-01-03T22:10:44.160Z,5.00
2019-01-03T22:13:15.602Z,4.90
2019-01-03T22:15:46.766Z,4.80
2019-01-03T22:18:26.412Z,4.80
2019-01-03T22:21:10.697Z,4.80
2019-01-03T22:23:41.643Z,4.80
2019-01-03T22:26:12.727Z,4.80
2019-01-03T22:28:43.662Z,4.80
2019-01-03T22:31:14.593Z,4.70
2019-01-03T22:33:45.640Z,4.80
2019-01-03T22:36:16.317Z,4.80
2019-01-03T22:38:47.261Z,4.80
2019-01-03T22:41:18.343Z,4.80
2019-01-03T22:43:49.431Z,4.80
2019-01-03T22:46:20.658Z,4.80
2019-01-03T22:48:51.596Z,4.80
2019-01-03T22:51:22.922Z,4.70
2019-01-03T22:53:53.956Z,4.80
2019-01-03T22:56:24.884Z,4.70
2019-01-03T22:58:55.956Z,4.70
2019-01-03T23:01:27.048Z,4.70
2019-01-03T23:03:57.812Z,4.80
2019-01-03T23:06:29.150Z,4.80
2019-01-03T23:09:00.031Z,4.70
2019-01-03T23:11:31.231Z,4.80
2019-01-03T23:14:02.192Z,4.70
2019-01-03T23:16:33.156Z,4.70
2019-01-03T23:19:04.154Z,4.60
2019-01-03T23:21:34.989Z,4.70
2019-01-03T23:24:16.324Z,4.70
2019-01-03T23:26:47.450Z,4.70
2019-01-03T23:29:18.406Z,4.70
2019-01-03T23:31:49.290Z,4.60
2019-01-03T23:34:20.305Z,4.60
2019-01-03T23:36:50.865Z,4.70
2019-01-03T23:39:21.795Z,4.70
2019-01-03T23:41:53.274Z,4.70
2019-01-03T23:44:24.167Z,4.60
2019-01-03T23:46:55.144Z,4.60
2019-01-03T23:49:26.512Z,4.60
2019-01-03T23:51:57.453Z,4.60
2019-01-03T23:54:28.508Z,4.60
2019-01-03T23:56:59.515Z,4.50
2019-01-03T23:59:30.524Z,4.60
